createdAt,value
2022-08-17T00:04:29.246Z,20.54
2022-08-17T00:09:51.146Z,20.45
2022-08-17T00:14:59.876Z,20.46
2022-08-17T00:20:15.384Z,20.49
2022-08-17T00:25:56.000Z,20.47
2022-08-17T00:31:05.171Z,20.48
2022-08-17T00:36:12.929Z,20.54
2022-08-17T00:41:36.890Z,20.53
2022-08-17T00:46:49.490Z,20.51
2022-08-17T00:52:12.828Z,20.52
2022-08-17T00:57:54.649Z,20.57
2022-08-17T01:03:35.954Z,20.62
2022-08-17T01:09:01.886Z,20.65
2022-08-17T01:14:21.612Z,20.61
2022-08-17T01:19:47.634Z,20.56
2022-08-17T01:25:00.000Z,20.49
2022-08-17T01:30:58.970Z,20.43
2022-08-17T01:35:53.590Z,20.46
2022-08-17T01:41:12.707Z,20.52
2022-08-17T01:46:27.275Z,20.59
2022-08-17T01:51:35.534Z,20.68
2022-08-17T01:57:03.948Z,20.69
2022-08-17T02:02:13.011Z,20.74
2022-08-17T02:07:42.338Z,20.78
2022-08-17T02:13:09.843Z,20.72
2022-08-17T02:18:23.026Z,20.69
2022-08-17T02:23:41.479Z,20.66
2022-08-17T02:28:47.832Z,20.63
2022-08-17T02:34:04.093Z,20.64
2022-08-17T02:39:19.429Z,20.64
2022-08-17T02:44:44.511Z,20.68
2022-08-17T02:50:01.566Z,20.66
2022-08-17T02:55:09.423Z,20.60
2022-08-17T03:00:23.344Z,20.62
2022-08-17T03:05:45.423Z,20.64
2022-08-17T03:10:51.355Z,20.64
2022-08-17T03:15:57.188Z,20.67
2022-08-17T03:21:05.210Z,20.60
2022-08-17T03:26:23.763Z,20.58
2022-08-17T03:31:36.910Z,20.58
2022-08-17T03:36:43.122Z,20.51
2022-08-17T03:41:49.295Z,20.50
2022-08-17T03:47:14.341Z,20.49
2022-08-17T03:52:51.897Z,20.36
2022-08-17T03:57:59.185Z,20.36
2022-08-17T04:03:03.881Z,20.45
2022-08-17T04:08:11.073Z,20.63
2022-08-17T04:13:14.895Z,20.83
2022-08-17T04:18:23.181Z,20.99
2022-08-17T04:23:55.907Z,21.12
2022-08-17T04:28:59.794Z,21.32
2022-08-17T04:34:03.299Z,21.63
2022-08-17T04:39:06.552Z,22.00
2022-08-17T04:44:09.739Z,22.21
2022-08-17T04:49:13.067Z,22.41
2022-08-17T04:54:20.437Z,22.72
2022-08-17T04:59:23.609Z,23.10
2022-08-17T05:04:34.457Z,23.50
2022-08-17T05:09:38.672Z,23.75
2022-08-17T05:14:42.188Z,24.02
2022-08-17T05:19:49.990Z,24.13
2022-08-17T05:24:57.986Z,24.26
2022-08-17T05:30:01.074Z,24.37
2022-08-17T05:35:06.359Z,24.71
2022-08-17T05:40:10.817Z,25.04
2022-08-17T05:45:54.206Z,25.63
2022-08-17T05:51:10.138Z,26.15
2022-08-17T05:56:34.079Z,26.32
2022-08-17T06:01:52.717Z,26.32
2022-08-17T06:07:05.236Z,26.63
2022-08-17T06:12:24.522Z,26.99
2022-08-17T06:17:29.711Z,27.25
2022-08-17T06:22:58.254Z,27.48
2022-08-17T06:28:14.888Z,27.79
2022-08-17T06:33:26.392Z,28.02
2022-08-17T06:39:08.477Z,28.09
2022-08-17T06:44:42.189Z,28.11
2022-08-17T06:50:09.393Z,27.56
2022-08-17T06:55:45.334Z,27.47
2022-08-17T07:00:54.222Z,27.93
2022-08-17T07:06:18.364Z,27.80
2022-08-17T07:11:36.809Z,28.04
2022-08-17T07:16:47.337Z,27.96
2022-08-17T07:22:09.250Z,28.00
2022-08-17T07:27:28.909Z,28.12
2022-08-17T07:32:49.378Z,28.54
2022-08-17T07:38:25.108Z,28.85
2022-08-17T07:43:41.204Z,29.23
2022-08-17T07:48:49.926Z,29.57
2022-08-17T07:54:13.629Z,29.41
2022-08-17T07:59:24.166Z,29.57
2022-08-17T08:10:05.972Z,29.53
2022-08-17T08:15:35.179Z,30.01
2022-08-17T08:21:05.360Z,29.79
2022-08-17T08:26:47.144Z,30.06
2022-08-17T08:32:51.155Z,30.55
2022-08-17T08:38:08.243Z,30.83
2022-08-17T08:44:03.950Z,31.37
2022-08-17T08:50:02.865Z,30.92
2022-08-17T08:55:23.568Z,30.22
2022-08-17T09:00:36.066Z,30.35
2022-08-17T09:06:37.366Z,30.18
2022-08-17T09:12:10.829Z,30.23
2022-08-17T09:17:32.785Z,29.69
2022-08-17T09:22:44.770Z,29.17
2022-08-17T09:28:05.299Z,28.90
2022-08-17T09:33:15.886Z,28.52
2022-08-17T09:38:55.550Z,28.28
2022-08-17T09:44:07.690Z,28.53
2022-08-17T09:49:28.904Z,28.86
2022-08-17T09:54:39.701Z,29.31
2022-08-17T10:00:13.788Z,29.70
2022-08-17T10:05:57.110Z,30.11
2022-08-17T10:11:20.035Z,30.16
2022-08-17T10:16:39.008Z,30.39
2022-08-17T10:22:14.564Z,30.71
2022-08-17T10:28:01.391Z,30.57
2022-08-17T10:33:20.588Z,30.62
2022-08-17T10:38:39.444Z,30.65
2022-08-17T10:44:37.252Z,30.62
2022-08-17T10:49:38.838Z,30.82
2022-08-17T10:54:51.898Z,31.06
2022-08-17T11:07:25.979Z,30.96
2022-08-17T11:12:55.889Z,31.49
2022-08-17T11:18:51.008Z,31.94
2022-08-17T11:24:17.830Z,32.21
2022-08-17T11:29:56.763Z,32.36
2022-08-17T11:35:22.205Z,32.24
2022-08-17T11:41:00.647Z,32.25
2022-08-17T11:47:07.050Z,31.22
2022-08-17T11:52:35.048Z,30.52
2022-08-17T11:57:41.196Z,30.80
2022-08-17T12:02:48.493Z,31.16
2022-08-17T12:08:22.036Z,31.54
2022-08-17T12:13:38.714Z,31.25
2022-08-17T12:18:58.646Z,31.09
2022-08-17T12:24:23.355Z,31.48
2022-08-17T12:35:05.344Z,32.06
2022-08-17T12:40:31.694Z,32.12
2022-08-17T12:45:39.901Z,32.09
2022-08-17T12:50:46.301Z,32.25
2022-08-17T12:55:51.715Z,32.37
2022-08-17T13:01:13.906Z,32.18
2022-08-17T13:06:51.932Z,31.90
2022-08-17T13:12:03.301Z,31.48
2022-08-17T13:17:13.460Z,30.98
2022-08-17T13:22:22.986Z,30.70
2022-08-17T13:27:28.706Z,30.56
2022-08-17T13:32:40.457Z,30.86
2022-08-17T13:38:05.542Z,31.23
2022-08-17T13:43:11.098Z,31.39
2022-08-17T13:54:02.886Z,31.86
2022-08-17T13:59:12.868Z,32.06
2022-08-17T14:04:21.675Z,31.42
2022-08-17T14:09:37.540Z,30.72
2022-08-17T14:14:42.756Z,30.24
2022-08-17T14:19:45.919Z,29.92
2022-08-17T14:24:49.075Z,29.73
2022-08-17T14:29:53.379Z,29.78
2022-08-17T14:34:57.950Z,30.29
2022-08-17T14:40:06.835Z,30.69
2022-08-17T14:45:31.495Z,31.02
2022-08-17T14:50:42.403Z,31.17
2022-08-17T14:55:47.315Z,31.10
2022-08-17T15:00:51.812Z,30.80
2022-08-17T15:05:55.516Z,30.54
2022-08-17T15:11:03.554Z,30.61
2022-08-17T15:16:13.893Z,30.67
2022-08-17T15:21:18.353Z,30.74
2022-08-17T15:26:25.690Z,30.54
2022-08-17T15:31:32.313Z,30.20
2022-08-17T15:36:37.337Z,30.01
2022-08-17T15:41:42.381Z,29.91
2022-08-17T15:46:45.520Z,29.87
2022-08-17T15:51:49.728Z,29.87
2022-08-17T15:56:53.019Z,29.92
2022-08-17T16:03:14.922Z,30.11
2022-08-17T16:07:26.571Z,30.25
2022-08-17T16:12:30.058Z,30.22
2022-08-17T16:17:40.206Z,30.20
2022-08-17T16:22:46.352Z,30.08
2022-08-17T16:27:53.696Z,29.84
2022-08-17T16:33:00.036Z,29.56
2022-08-17T16:38:07.392Z,29.27
2022-08-17T16:43:14.368Z,29.01
2022-08-17T16:48:18.657Z,28.76
2022-08-17T16:53:21.840Z,28.58
2022-08-17T16:58:25.098Z,28.40
2022-08-17T17:03:33.160Z,28.15
2022-08-17T17:09:04.706Z,27.90
2022-08-17T17:14:21.201Z,27.73
2022-08-17T17:19:45.698Z,27.60
2022-08-17T17:25:13.942Z,27.46
2022-08-17T17:30:24.345Z,27.28
2022-08-17T17:36:30.041Z,27.13
2022-08-17T17:41:58.998Z,26.99
2022-08-17T17:47:04.518Z,26.96
2022-08-17T17:52:36.495Z,26.89
2022-08-17T17:58:18.418Z,26.70
2022-08-17T18:04:05.328Z,26.47
2022-08-17T18:16:43.008Z,25.91
2022-08-17T18:22:00.951Z,25.72
2022-08-17T18:41:30.540Z,25.23
2022-08-17T18:47:39.558Z,25.12
2022-08-17T18:52:44.472Z,24.94
2022-08-17T18:57:59.305Z,24.80
2022-08-17T19:03:17.953Z,24.68
2022-08-17T19:08:37.829Z,24.59
2022-08-17T19:24:35.296Z,24.19
2022-08-17T19:30:08.343Z,23.94
2022-08-17T19:35:20.421Z,23.72
2022-08-17T19:41:05.065Z,23.41
2022-08-17T19:46:35.864Z,23.15
2022-08-17T19:52:00.416Z,23.05
2022-08-17T19:57:18.564Z,23.02
2022-08-17T20:03:07.155Z,22.96
2022-08-17T20:08:34.684Z,22.83
2022-08-17T20:13:56.045Z,22.79
2022-08-17T20:19:12.929Z,22.75
2022-08-17T20:24:34.857Z,22.72
2022-08-17T20:30:21.469Z,22.58
2022-08-17T20:35:33.388Z,22.44
2022-08-17T20:41:04.846Z,22.46
2022-08-17T20:46:34.651Z,22.45
2022-08-17T20:52:19.796Z,22.41
2022-08-17T20:57:38.216Z,22.26
2022-08-17T21:02:49.764Z,22.06
2022-08-17T21:08:03.925Z,21.84
2022-08-17T21:13:18.496Z,21.70
2022-08-17T21:19:10.359Z,21.68
2022-08-17T21:24:53.692Z,21.63
2022-08-17T21:30:48.369Z,21.53
2022-08-17T21:36:15.792Z,21.45
2022-08-17T21:41:48.000Z,21.38
2022-08-17T21:47:13.534Z,21.06
2022-08-17T21:52:34.146Z,20.91
2022-08-17T21:57:52.963Z,20.87
2022-08-17T22:03:31.477Z,20.83
2022-08-17T22:08:48.923Z,20.81
2022-08-17T22:14:05.874Z,20.78
2022-08-17T22:19:17.891Z,20.68
2022-08-17T22:24:31.139Z,20.57
2022-08-17T22:30:46.160Z,20.50
2022-08-17T22:36:43.580Z,20.54
2022-08-17T22:42:12.410Z,20.55
2022-08-17T22:47:48.967Z,20.57
2022-08-17T22:54:03.964Z,20.57
2022-08-17T22:59:55.707Z,20.49
2022-08-17T23:05:32.261Z,20.42
2022-08-17T23:10:43.305Z,20.33
2022-08-17T23:15:51.510Z,20.21
2022-08-17T23:21:07.432Z,20.11
2022-08-17T23:26:55.560Z,20.05
2022-08-17T23:32:04.914Z,19.98
2022-08-17T23:37:40.477Z,19.99
2022-08-17T23:43:17.451Z,20.03
2022-08-17T23:48:44.466Z,20.03
2022-08-17T23:54:08.353Z,19.87
2022-08-17T23:59:23.709Z,19.80
